createdAt,value
2023-05-03T08:07:12.832Z,143476.31
2023-05-03T08:12:16.584Z,143276.44
2023-05-03T08:17:20.917Z,143177.19
2023-05-03T08:22:28.379Z,142904.38
2023-05-03T08:27:31.780Z,142849.88
2023-05-03T08:32:35.536Z,142956.47
2023-05-03T08:37:41.403Z,143055.66
2023-05-03T08:42:45.893Z,143077.94
2023-05-03T08:47:55.176Z,143018.44
2023-05-03T08:53:00.475Z,142894.50
2023-05-03T08:58:04.744Z,143073.00
2023-05-03T09:03:08.506Z,143204.50
2023-05-03T09:08:15.377Z,143249.16
2023-05-03T09:13:20.063Z,143277.69
2023-05-03T09:18:24.057Z,143267.78
2023-05-03T09:23:32.731Z,143127.56
2023-05-03T09:28:42.025Z,143137.47
2023-05-03T09:33:45.991Z,143063.09
2023-05-03T09:38:51.481Z,143037.06
2023-05-03T09:44:02.924Z,142951.50
2023-05-03T09:49:06.868Z,142986.22
2023-05-03T09:54:13.300Z,142960.16
2023-05-03T09:59:16.980Z,143035.81
2023-05-03T10:04:22.099Z,142993.63
2023-05-03T10:09:32.806Z,143233.03
2023-05-03T10:14:39.329Z,143380.72
2023-05-03T10:19:51.745Z,143478.84
2023-05-03T10:25:10.879Z,143466.41
2023-05-03T10:30:29.170Z,143503.66
2023-05-03T10:35:32.941Z,143215.66
2023-05-03T10:40:44.703Z,143228.09
2023-05-03T10:45:49.684Z,143328.59
2023-05-03T10:50:53.297Z,143359.59
2023-05-03T10:56:06.107Z,143342.25
2023-05-03T11:01:11.134Z,143169.78
2023-05-03T11:06:31.519Z,143343.50
2023-05-03T11:11:39.121Z,143311.22
2023-05-03T11:16:48.218Z,143410.53
2023-05-03T11:21:53.787Z,143451.53
2023-05-03T11:27:00.161Z,143424.22
2023-05-03T11:32:12.576Z,143552.09
2023-05-03T11:37:17.499Z,143790.75
2023-05-03T11:42:24.752Z,143982.25
2023-05-03T11:47:30.783Z,143888.97
2023-05-03T11:52:37.731Z,143935.00
2023-05-03T11:57:43.710Z,144056.91
2023-05-03T12:02:49.092Z,144134.09
2023-05-03T12:13:05.126Z,143841.69
2023-05-03T12:18:10.978Z,143559.53
2023-05-03T12:23:16.120Z,143594.38
2023-05-03T12:28:22.687Z,143666.41
2023-05-03T12:33:28.532Z,143699.97
2023-05-03T12:38:35.893Z,143603.06
2023-05-03T12:43:43.655Z,143620.47
2023-05-03T12:48:52.255Z,143711.19
2023-05-03T12:54:01.620Z,143518.56
2023-05-03T12:59:39.227Z,143611.72
2023-05-03T13:10:12.047Z,143681.34
2023-05-03T13:15:03.608Z,143803.16
2023-05-03T13:20:08.481Z,143865.31
2023-05-03T13:25:14.298Z,143888.97
2023-05-03T13:30:23.620Z,143888.97
2023-05-03T13:35:26.876Z,143795.72
2023-05-03T13:40:30.188Z,143586.88
2023-05-03T13:45:35.023Z,143557.06
2023-05-03T13:50:40.467Z,143612.97
2023-05-03T13:55:43.764Z,143570.75
2023-05-03T14:00:48.433Z,143672.63
2023-05-03T14:05:51.766Z,143773.31
2023-05-03T14:10:55.050Z,143788.25
2023-05-03T14:16:02.141Z,143795.72
2023-05-03T14:21:05.728Z,143798.19
2023-05-03T14:26:09.320Z,143769.59
2023-05-03T14:31:14.282Z,143773.31
2023-05-03T14:36:17.723Z,143767.13
2023-05-03T14:41:21.727Z,143714.91
2023-05-03T14:46:26.676Z,143723.59
2023-05-03T14:51:30.050Z,143731.03
2023-05-03T14:56:33.932Z,143704.97
2023-05-03T15:01:39.173Z,143731.03
2023-05-03T15:06:43.008Z,143758.38
2023-05-03T15:11:46.625Z,143793.22
2023-05-03T15:16:53.843Z,143747.22
2023-05-03T15:21:57.437Z,143726.06
2023-05-03T15:27:02.859Z,143754.66
2023-05-03T15:32:08.092Z,143742.25
2023-05-03T15:37:13.157Z,143727.31
2023-05-03T15:42:16.568Z,143742.25
2023-05-03T15:47:22.539Z,143791.97
2023-05-03T15:52:26.121Z,143779.53
2023-05-03T15:57:30.388Z,143683.84
2023-05-03T16:02:35.631Z,143645.28
2023-05-03T16:07:40.456Z,143652.75
2023-05-03T16:12:44.208Z,143692.50
2023-05-03T16:17:49.469Z,143624.19
2023-05-03T16:28:44.016Z,143576.94
2023-05-03T16:33:49.304Z,143573.22
2023-05-03T16:38:52.707Z,143555.81
2023-05-03T16:43:56.063Z,143572.00
2023-05-03T16:49:01.769Z,143579.44
2023-05-03T16:54:05.654Z,143590.66
2023-05-03T16:59:09.423Z,143547.16
2023-05-03T17:04:16.870Z,143512.38
2023-05-03T17:09:22.490Z,143480.09
2023-05-03T17:14:26.486Z,143450.28
2023-05-03T17:19:33.139Z,143445.28
2023-05-03T17:24:36.601Z,143431.63
2023-05-03T17:29:42.951Z,143422.97
2023-05-03T17:34:47.598Z,143369.56
2023-05-03T17:39:52.073Z,143336.06
2023-05-03T17:44:55.417Z,143321.16
2023-05-03T17:50:00.413Z,143297.56
2023-05-03T17:55:04.402Z,143275.22
2023-05-03T18:00:11.121Z,143226.84
2023-05-03T18:05:18.069Z,143203.25
2023-05-03T18:10:24.327Z,143128.81
2023-05-03T18:15:27.593Z,143099.06
2023-05-03T18:20:34.633Z,143069.28
2023-05-03T18:25:37.993Z,143051.91
2023-05-03T18:30:41.347Z,143009.78
2023-05-03T18:35:47.873Z,142960.16
2023-05-03T18:40:51.579Z,142921.75
2023-05-03T18:45:54.873Z,142872.19
2023-05-03T18:51:02.223Z,142828.84
2023-05-03T18:56:05.892Z,142780.50
2023-05-03T19:01:09.245Z,142730.94
2023-05-03T19:06:14.483Z,142690.09
2023-05-03T19:11:18.156Z,142643.03
2023-05-03T19:16:21.483Z,142624.44
2023-05-03T19:21:26.985Z,142589.78
2023-05-03T19:26:30.494Z,142548.97
2023-05-03T19:31:33.963Z,142510.59
2023-05-03T19:36:39.693Z,142480.91
2023-05-03T19:41:43.093Z,142466.09
2023-05-03T19:46:46.592Z,142443.81
2023-05-03T19:51:53.823Z,142424.00
2023-05-03T19:56:57.789Z,142402.94
2023-05-03T20:02:02.169Z,142372.03
2023-05-03T20:07:07.148Z,142321.34
2023-05-03T20:12:10.928Z,142292.91
2023-05-03T20:17:14.591Z,142290.41
2023-05-03T20:22:19.522Z,142280.53
2023-05-03T20:27:25.871Z,142265.72
2023-05-03T20:32:31.633Z,142234.75
2023-05-03T20:37:38.417Z,142205.09
2023-05-03T20:42:42.196Z,142154.44
2023-05-03T20:47:45.516Z,142119.81
2023-05-03T20:52:50.450Z,142103.78
2023-05-03T20:57:56.410Z,142054.34
2023-05-03T21:03:00.119Z,142012.34
2023-05-03T21:08:05.641Z,141992.59
2023-05-03T21:13:09.012Z,141954.25
2023-05-03T21:18:12.457Z,141923.44
2023-05-03T21:23:17.271Z,141888.88
2023-05-03T21:28:23.052Z,141854.31
2023-05-03T21:33:30.843Z,141849.38
2023-05-03T21:38:36.023Z,141832.09
2023-05-03T21:43:41.646Z,141830.84
